Time;durP1;ratioP1;P1;durP2;ratioP2;P2;SDS_P1;SDS_P2;PMS_P1;PMS_P2;Temp;Humidity;BMP_temperature;BMP_pressure;BME280_temperature;BME280_humidity;BME280_pressure;Samples;Min_cycle;Max_cycle;Signal;HPM_P1;HPM_P2
2024/02/09 00:00:43;;;;;;;;;;;;;;;8.76;94.72;98013.03;5114504;28;19927;-65
2024/02/09 00:03:13;;;;;;;;;;;;;;;8.82;93.97;98004.44;5114810;28;19919;-65
2024/02/09 00:05:43;;;;;;;;;;;;;;;8.83;93.98;98018.84;5114552;28;20369;-65
2024/02/09 00:08:13;;;;;;;;;;;;;;;8.80;93.92;98014.66;5114867;28;19970;-65
2024/02/09 00:10:42;;;;;;;;;;;;;;;8.80;93.01;98008.75;5114770;28;19923;-65
2024/02/09 00:13:14;;;;;;;;;;;;;;;8.82;93.59;97997.66;5114423;28;20359;-65
2024/02/09 00:15:45;;;;;;;;;;;;;;;8.84;93.39;97990.84;5115080;28;19969;-66
2024/02/09 00:18:15;;;;;;;;;;;;;;;8.84;93.13;97974.72;5113522;28;19969;-66
2024/02/09 00:20:47;;;;;;;;;;;;;;;8.79;92.51;97990.09;5114269;28;19919;-65
2024/02/09 00:23:16;;;;;;;;;;;;;;;8.80;92.42;98029.94;5114254;28;20428;-65
2024/02/09 00:25:44;;;;;;;;;;;;;;;8.77;92.93;98030.81;5114852;28;20272;-65
2024/02/09 00:28:13;;;;;;;;;;;;;;;8.73;92.90;98020.75;5114608;28;20430;-65
2024/02/09 00:30:41;;;;;;;;;;;;;;;8.72;92.50;98031.78;5114765;28;20401;-65
2024/02/09 00:33:10;;;;;;;;;;;;;;;8.72;92.77;98026.69;5114595;28;19958;-64
2024/02/09 00:35:40;;;;;;;;;;;;;;;8.72;93.13;98021.59;5114535;28;19927;-64
2024/02/09 00:38:10;;;;;;;;;;;;;;;8.74;92.78;98030.03;5114548;28;19920;-65
2024/02/09 00:40:39;;;;;;;;;;;;;;;8.72;93.01;98026.69;5114247;28;20289;-65
2024/02/09 00:43:13;;;;;;;;;;;;;;;8.70;92.87;98025.88;5114296;28;19920;-65
2024/02/09 00:45:43;;;;;;;;;;;;;;;8.71;92.99;98019.91;5114532;28;19920;-66
2024/02/09 00:48:12;;;;;;;;;;;;;;;8.68;92.78;98020.00;5113176;28;19924;-66
2024/02/09 00:50:40;;;;;;;;;;;;;;;8.66;93.18;98026.81;5114119;28;19927;-64
2024/02/09 00:53:11;;;;;;;;;;;;;;;8.64;93.40;98026.00;5114323;28;19920;-65
2024/02/09 00:55:40;;;;;;;;;;;;;;;8.61;93.35;98023.53;5115831;28;19919;-66
2024/02/09 00:58:08;;;;;;;;;;;;;;;8.57;92.63;98024.44;5118277;28;19955;-66
2024/02/09 01:00:40;;;;;;;;;;;;;;;8.55;92.95;98023.63;5118237;28;20415;-66
2024/02/09 01:03:10;;;;;;;;;;;;;;;8.56;93.42;98017.69;5116627;28;20321;-64
2024/02/09 01:05:39;;;;;;;;;;;;;;;8.56;93.66;98002.44;5118332;28;19919;-65
2024/02/09 01:08:08;;;;;;;;;;;;;;;8.58;93.51;98018.50;5118083;28;19919;-64
2024/02/09 01:10:39;;;;;;;;;;;;;;;8.58;93.59;98024.44;5117697;28;19920;-65
2024/02/09 02:45:42;;;;;;;;;;;;;;;7.54;93.00;97934.84;5116277;28;19927;-66
2024/02/09 03:06:42;;;;;;;;;;;;;;;7.33;92.72;97953.81;5115633;28;19923;-65
2024/02/09 03:09:30;;;;;;;;;;;;;;;7.30;93.08;97958.09;5115762;28;20289;-65
2024/02/09 03:11:59;;;;;;;;;;;;;;;7.27;93.03;97968.31;5115689;28;19920;-66
2024/02/09 03:14:30;;;;;;;;;;;;;;;7.25;92.07;97964.94;5114452;28;19927;-64
2024/02/09 03:17:03;;;;;;;;;;;;;;;7.19;93.08;97959.97;5115241;28;19927;-66
2024/02/09 03:19:31;;;;;;;;;;;;;;;7.18;92.75;97958.28;5114769;28;19973;-66
2024/02/09 03:22:00;;;;;;;;;;;;;;;7.17;93.07;97966.75;5115612;28;19923;-65
2024/02/09 03:24:28;;;;;;;;;;;;;;;7.15;93.04;97968.50;5114927;28;19920;-65
2024/02/09 03:26:56;;;;;;;;;;;;;;;7.11;92.41;97964.31;5114910;28;19920;-65
2024/02/09 03:29:25;;;;;;;;;;;;;;;7.07;92.84;97962.69;5115040;28;19976;-65
2024/02/09 03:31:53;;;;;;;;;;;;;;;7.05;92.39;97966.94;5114979;28;19973;-65
2024/02/09 03:34:23;;;;;;;;;;;;;;;7.03;92.36;97973.75;5115357;28;19973;-65
2024/02/09 03:36:54;;;;;;;;;;;;;;;6.98;92.11;97962.81;5115489;28;19920;-65
2024/02/09 03:39:23;;;;;;;;;;;;;;;6.98;92.21;97970.44;5115285;28;19920;-66
2024/02/09 03:41:51;;;;;;;;;;;;;;;6.97;93.15;97968.75;5115291;28;19920;-65
2024/02/09 03:44:20;;;;;;;;;;;;;;;6.98;92.58;97967.91;5115129;28;19919;-65
2024/02/09 03:46:48;;;;;;;;;;;;;;;7.00;92.17;97968.69;5115124;28;19949;-65
2024/02/09 03:49:17;;;;;;;;;;;;;;;7.02;92.86;97975.44;5113517;28;19926;-66
2024/02/09 03:51:46;;;;;;;;;;;;;;;7.02;92.13;97972.06;5114952;28;19923;-64
2024/02/09 03:54:16;;;;;;;;;;;;;;;6.99;93.05;97972.09;5115045;28;19972;-65
2024/02/09 03:56:44;;;;;;;;;;;;;;;6.98;92.20;97965.34;5114659;28;20319;-65
2024/02/09 03:59:12;;;;;;;;;;;;;;;7.00;92.95;97963.63;5114910;28;19955;-65
2024/02/09 04:01:40;;;;;;;;;;;;;;;7.01;92.62;97975.44;5114897;28;20415;-64
2024/02/09 04:04:09;;;;;;;;;;;;;;;6.94;92.36;97984.00;5114947;28;19919;-65
2024/02/09 04:06:39;;;;;;;;;;;;;;;6.88;92.61;97992.53;5114712;28;19972;-66
2024/02/09 04:09:09;;;;;;;;;;;;;;;6.89;93.12;97978.13;5113601;28;19927;-64
2024/02/09 04:11:58;;;;;;;;;;;;;;;6.89;93.17;97978.97;5096505;28;19920;-66
2024/02/09 04:14:27;;;;;;;;;;;;;;;6.91;92.45;97981.50;5115003;28;19926;-65
2024/02/09 04:16:56;;;;;;;;;;;;;;;6.86;92.82;97980.75;5114808;28;19924;-66
2024/02/09 04:19:26;;;;;;;;;;;;;;;6.80;92.63;97984.19;5114630;28;20007;-66
2024/02/09 04:21:54;;;;;;;;;;;;;;;6.84;92.55;97974.84;5096376;28;19920;-66
2024/02/09 04:24:25;;;;;;;;;;;;;;;6.82;92.32;97976.53;5114287;28;19920;-66
2024/02/09 04:26:54;;;;;;;;;;;;;;;6.76;92.97;97982.56;5114297;28;19966;-65
2024/02/09 04:29:23;;;;;;;;;;;;;;;6.70;92.45;97969.94;5113090;28;19968;-66
2024/02/09 04:31:52;;;;;;;;;;;;;;;6.71;92.38;97967.41;5117321;28;19920;-64
2024/02/09 04:34:20;;;;;;;;;;;;;;;6.69;92.64;97958.16;5118453;28;20289;-65
2024/02/09 04:36:49;;;;;;;;;;;;;;;6.68;92.64;97957.31;5117854;28;19919;-65
2024/02/09 04:39:18;;;;;;;;;;;;;;;6.68;92.64;97962.38;5118680;28;19972;-65
2024/02/09 04:41:49;;;;;;;;;;;;;;;6.68;93.51;97953.91;5118555;28;20363;-65
2024/02/09 04:44:20;;;;;;;;;;;;;;;6.70;93.12;97950.50;5116984;28;19919;-65
2024/02/09 04:46:49;;;;;;;;;;;;;;;6.74;92.83;97946.25;5118146;28;19919;-65
2024/02/09 04:49:18;;;;;;;;;;;;;;;6.72;92.93;97947.94;5117108;28;19927;-66
2024/02/09 04:51:47;;;;;;;;;;;;;;;6.75;93.48;97948.75;5117997;28;20292;-66
2024/02/09 04:54:15;;;;;;;;;;;;;;;6.75;93.29;97933.53;5118112;28;20353;-66
2024/02/09 04:56:44;;;;;;;;;;;;;;;6.75;93.36;97942.84;5118335;28;19927;-65
2024/02/09 04:59:14;;;;;;;;;;;;;;;6.72;93.50;97933.59;5118033;28;20316;-65
2024/02/09 05:01:43;;;;;;;;;;;;;;;6.74;93.41;97936.13;5118196;28;19920;-65
2024/02/09 05:04:12;;;;;;;;;;;;;;;6.73;93.27;97945.41;5118162;28;19973;-65
2024/02/09 05:06:41;;;;;;;;;;;;;;;6.72;93.22;97940.34;5117000;28;19920;-65
2024/02/09 05:09:10;;;;;;;;;;;;;;;6.70;93.36;97932.78;5117775;28;19919;-65
2024/02/09 05:11:39;;;;;;;;;;;;;;;6.72;93.21;97931.03;5117663;28;19919;-64
2024/02/09 05:14:07;;;;;;;;;;;;;;;6.77;93.24;97920.03;5117644;28;19920;-65
2024/02/09 05:16:40;;;;;;;;;;;;;;;6.75;93.50;97910.72;5117901;28;20447;-66
2024/02/09 05:19:09;;;;;;;;;;;;;;;6.77;93.77;97915.78;5117982;28;19965;-65
2024/02/09 05:21:40;;;;;;;;;;;;;;;6.75;93.84;97908.19;5117597;28;19926;-65
2024/02/09 05:24:08;;;;;;;;;;;;;;;6.73;93.80;97904.84;5116723;28;20010;-66
2024/02/09 05:26:37;;;;;;;;;;;;;;;6.78;93.50;97896.34;5116547;28;19926;-65
2024/02/09 05:29:05;;;;;;;;;;;;;;;6.82;93.59;97887.81;5116182;28;20097;-64
2024/02/09 05:31:34;;;;;;;;;;;;;;;6.80;94.04;97889.53;5116423;28;19920;-66
2024/02/09 05:34:07;;;;;;;;;;;;;;;6.77;93.97;97889.59;5115950;28;19920;-65
2024/02/09 05:36:36;;;;;;;;;;;;;;;6.75;93.98;97898.06;5116467;28;19969;-66
2024/02/09 05:39:04;;;;;;;;;;;;;;;6.79;94.41;97898.03;5116376;28;19927;-65
2024/02/09 05:41:33;;;;;;;;;;;;;;;6.73;93.74;97904.84;5115492;28;19920;-65
2024/02/09 05:44:01;;;;;;;;;;;;;;;6.75;93.99;97903.13;5116272;28;19994;-65
2024/02/09 05:46:31;;;;;;;;;;;;;;;6.80;93.56;97904.75;5115946;28;19919;-66
2024/02/09 05:48:59;;;;;;;;;;;;;;;6.83;93.71;97904.72;5115846;28;19996;-65
2024/02/09 05:51:29;;;;;;;;;;;;;;;6.83;93.66;97909.78;5116169;28;19919;-65
2024/02/09 05:53:58;;;;;;;;;;;;;;;6.85;93.69;97919.03;5116038;28;20297;-67
2024/02/09 05:56:27;;;;;;;;;;;;;;;6.86;94.52;97924.97;5115999;28;19930;-64
2024/02/09 05:58:56;;;;;;;;;;;;;;;6.88;94.10;97923.22;5116007;28;19951;-65
2024/02/09 06:01:30;;;;;;;;;;;;;;;6.87;93.69;97926.63;5115822;28;20284;-66
2024/02/09 06:03:58;;;;;;;;;;;;;;;6.86;94.30;97920.72;5114637;28;19920;-64
2024/02/09 06:06:27;;;;;;;;;;;;;;;6.85;94.41;97918.19;5115861;28;19920;-65
2024/02/09 06:08:58;;;;;;;;;;;;;;;6.86;94.33;97930.03;5115605;28;20395;-66
2024/02/09 06:11:27;;;;;;;;;;;;;;;6.83;93.85;97925.84;5115865;28;19923;-66
2024/02/09 06:13:55;;;;;;;;;;;;;;;6.82;93.94;97915.69;5114592;28;19920;-65
2024/02/09 06:16:26;;;;;;;;;;;;;;;6.80;94.25;97914.88;5114283;28;19920;-65
2024/02/09 06:18:54;;;;;;;;;;;;;;;6.78;94.17;97914.06;5115443;28;20494;-65
2024/02/09 06:21:23;;;;;;;;;;;;;;;6.73;94.55;97898.94;5115162;28;19920;-66
2024/02/09 06:23:52;;;;;;;;;;;;;;;6.72;94.17;97898.09;5060018;28;1575718;-66
2024/02/09 06:26:23;;;;;;;;;;;;;;;6.75;94.19;97907.34;5115248;28;19923;-66
2024/02/09 06:28:52;;;;;;;;;;;;;;;6.75;93.85;97900.59;5116390;28;20358;-64
2024/02/09 06:31:24;;;;;;;;;;;;;;;6.77;94.33;97909.88;5116463;28;19920;-64
2024/02/09 06:33:55;;;;;;;;;;;;;;;6.77;94.32;97907.34;5116681;28;19920;-65
2024/02/09 06:36:25;;;;;;;;;;;;;;;6.75;94.11;97923.41;5116476;28;19923;-65
2024/02/09 06:38:54;;;;;;;;;;;;;;;6.75;94.23;97918.34;5116344;28;19920;-65
2024/02/09 06:41:24;;;;;;;;;;;;;;;6.75;93.99;97933.53;5116233;28;19931;-64
2024/02/09 06:43:52;;;;;;;;;;;;;;;6.77;94.02;97940.31;5114607;28;19948;-66
2024/02/09 06:46:21;;;;;;;;;;;;;;;6.77;94.35;97922.56;5116201;28;20307;-66
2024/02/09 06:48:51;;;;;;;;;;;;;;;6.81;94.26;97926.72;5115842;28;19919;-65
2024/02/09 06:51:20;;;;;;;;;;;;;;;6.83;93.75;97930.06;5115921;28;19926;-65
2024/02/09 06:53:50;;;;;;;;;;;;;;;6.84;94.12;97926.69;5114477;28;20360;-65
2024/02/09 06:56:18;;;;;;;;;;;;;;;6.86;94.17;97919.88;5115959;28;20462;-65
2024/02/09 06:58:50;;;;;;;;;;;;;;;6.90;94.76;97921.50;5116099;28;20001;-65
2024/02/09 07:01:19;;;;;;;;;;;;;;;6.91;93.72;97929.09;5114179;28;20361;-65
2024/02/09 07:03:49;;;;;;;;;;;;;;;6.95;94.36;97928.19;5115620;28;19958;-65
2024/02/09 07:06:19;;;;;;;;;;;;;;;7.00;94.52;97930.66;5115514;28;19920;-65
2024/02/09 07:08:52;;;;;;;;;;;;;;;7.01;94.66;97925.56;5115857;28;19927;-66
2024/02/09 07:11:21;;;;;;;;;;;;;;;7.04;93.52;97929.75;5115742;28;19919;-65
2024/02/09 07:13:51;;;;;;;;;;;;;;;7.08;94.22;97921.25;5115545;28;20024;-65
2024/02/09 07:16:19;;;;;;;;;;;;;;;7.14;94.34;97931.28;5115287;28;20339;-66
2024/02/09 07:18:47;;;;;;;;;;;;;;;7.18;94.53;97921.06;5115032;27;19962;-65
2024/02/09 07:21:17;;;;;;;;;;;;;;;7.22;94.32;97921.88;5115151;28;20357;-64
2024/02/09 07:23:49;;;;;;;;;;;;;;;7.28;94.32;97926.84;5115020;28;20297;-65
2024/02/09 07:26:20;;;;;;;;;;;;;;;7.36;94.62;97932.63;5115484;28;19920;-65
2024/02/09 07:28:49;;;;;;;;;;;;;;;7.42;94.63;97929.97;5115136;28;19943;-66
2024/02/09 07:31:21;;;;;;;;;;;;;;;7.51;94.23;97926.47;5114981;28;19924;-67
2024/02/09 07:33:50;;;;;;;;;;;;;;;7.22;93.89;97850.84;5115373;28;19926;-65
2024/02/09 07:36:18;;;;;;;;;;;;;;;7.66;94.82;97914.34;5113555;28;20340;-65
2024/02/09 07:38:47;;;;;;;;;;;;;;;7.77;94.59;97909.94;5113670;28;19924;-66
2024/02/09 07:41:19;;;;;;;;;;;;;;;7.81;94.22;97919.16;5114817;28;20424;-66
2024/02/09 07:43:48;;;;;;;;;;;;;;;7.81;94.14;97905.59;5115230;28;19974;-64
2024/02/09 07:46:17;;;;;;;;;;;;;;;7.90;94.78;97906.28;5114919;28;20335;-65
2024/02/09 07:48:47;;;;;;;;;;;;;;;7.93;94.12;97910.47;5115494;28;19920;-64
2024/02/09 07:51:20;;;;;;;;;;;;;;;8.01;94.06;97911.16;5115074;28;19955;-67
2024/02/09 07:53:52;;;;;;;;;;;;;;;8.06;94.78;97911.91;5096794;28;19927;-65
2024/02/09 07:56:23;;;;;;;;;;;;;;;8.13;93.98;97893.97;5114569;28;19969;-65
2024/02/09 07:58:52;;;;;;;;;;;;;;;8.20;94.00;97894.69;5113887;28;19965;-66
2024/02/09 08:01:21;;;;;;;;;;;;;;;8.27;94.45;97898.81;5114582;28;19926;-64
2024/02/09 08:03:53;;;;;;;;;;;;;;;8.35;94.58;97893.59;5114379;28;19923;-66
2024/02/09 08:06:22;;;;;;;;;;;;;;;8.39;94.05;97890.94;5115033;28;19926;-66
2024/02/09 08:08:52;;;;;;;;;;;;;;;8.42;93.20;97887.50;5114355;28;19923;-66
2024/02/09 08:11:21;;;;;;;;;;;;;;;8.46;93.91;97886.56;5114982;28;19920;-65
2024/02/09 08:13:51;;;;;;;;;;;;;;;8.47;93.54;97878.88;5115091;28;19927;-66
2024/02/09 08:16:21;;;;;;;;;;;;;;;8.52;92.84;97871.16;5114710;28;19963;-64
2024/02/09 08:18:49;;;;;;;;;;;;;;;8.54;92.66;97877.06;5114321;28;19919;-65
2024/02/09 08:21:20;;;;;;;;;;;;;;;8.61;92.63;97881.97;5114438;28;19924;-65
2024/02/09 08:23:49;;;;;;;;;;;;;;;8.71;92.95;97877.50;5114318;28;19920;-63
2024/02/09 08:26:17;;;;;;;;;;;;;;;8.78;92.51;97868.91;5114586;28;19946;-64
2024/02/09 08:28:47;;;;;;;;;;;;;;;8.83;92.41;97867.06;5114654;28;20014;-67
2024/02/09 08:31:16;;;;;;;;;;;;;;;8.83;91.82;97877.22;5114873;28;19920;-64
2024/02/09 08:33:46;;;;;;;;;;;;;;;8.86;91.66;97867.00;5114417;28;20340;-67
2024/02/09 08:36:17;;;;;;;;;;;;;;;8.89;91.68;97866.94;5114617;28;19920;-65
2024/02/09 08:38:47;;;;;;;;;;;;;;;8.90;91.75;97863.50;5114343;28;19920;-64
2024/02/09 08:41:15;;;;;;;;;;;;;;;8.93;91.59;97865.97;5114143;28;19926;-63
2024/02/09 08:43:43;;;;;;;;;;;;;;;8.96;91.11;97858.28;5114526;28;19920;-64
2024/02/09 08:46:12;;;;;;;;;;;;;;;9.00;90.88;97859.88;5114366;28;19932;-65
2024/02/09 08:48:41;;;;;;;;;;;;;;;9.00;90.59;97851.44;5114028;28;19928;-64
2024/02/09 08:51:10;;;;;;;;;;;;;;;9.03;90.14;97848.78;5114013;28;20436;-65
2024/02/09 08:53:38;;;;;;;;;;;;;;;9.07;90.16;97856.31;5114463;28;19924;-65
2024/02/09 08:56:10;;;;;;;;;;;;;;;9.11;90.03;97847.75;5114354;28;19964;-66
2024/02/09 08:58:42;;;;;;;;;;;;;;;9.15;89.96;97849.34;5115017;28;20380;-66
2024/02/09 09:01:10;;;;;;;;;;;;;;;9.20;89.75;97834.78;5113898;28;20010;-65
2024/02/09 09:03:39;;;;;;;;;;;;;;;9.27;89.26;97828.66;5114143;28;20354;-65
2024/02/09 09:06:08;;;;;;;;;;;;;;;9.35;89.22;97826.78;5113823;28;19919;-63
2024/02/09 09:08:36;;;;;;;;;;;;;;;9.45;89.27;97822.28;5114168;28;20075;-64
2024/02/09 09:11:05;;;;;;;;;;;;;;;9.54;89.30;97816.09;5113847;28;19920;-65
2024/02/09 09:13:35;;;;;;;;;;;;;;;9.61;89.12;97822.69;5114126;28;19920;-66
2024/02/09 09:16:04;;;;;;;;;;;;;;;9.67;88.83;97817.47;5113897;28;20366;-64
2024/02/09 09:18:33;;;;;;;;;;;;;;;9.71;88.55;97816.50;5117578;28;19919;-64
2024/02/09 09:21:01;;;;;;;;;;;;;;;9.75;88.88;97805.31;5117642;28;19942;-64
2024/02/09 09:23:31;;;;;;;;;;;;;;;9.81;88.67;97805.97;5117291;28;19919;-64
2024/02/09 09:25:59;;;;;;;;;;;;;;;9.86;88.05;97804.16;5117353;28;20026;-65
2024/02/09 09:28:38;;;;;;;;;;;;;;;9.92;88.35;97795.50;5117622;28;19920;-65
2024/02/09 09:31:06;;;;;;;;;;;;;;;10.01;87.87;97798.63;5117321;28;20034;-65
2024/02/09 09:33:35;;;;;;;;;;;;;;;10.06;87.89;97790.84;5117353;28;19920;-65
2024/02/09 09:36:03;;;;;;;;;;;;;;;10.11;87.21;97789.00;5117616;28;19920;-66
2024/02/09 09:38:32;;;;;;;;;;;;;;;10.18;87.06;97790.50;5117433;28;19923;-65
2024/02/09 09:41:00;;;;;;;;;;;;;;;10.25;86.75;97802.19;5117123;28;19966;-65
2024/02/09 09:43:29;;;;;;;;;;;;;;;10.32;86.59;97798.59;5117420;28;19923;-65
2024/02/09 09:46:00;;;;;;;;;;;;;;;10.38;85.97;97797.56;5117371;28;19919;-65
2024/02/09 09:48:30;;;;;;;;;;;;;;;10.41;85.64;97797.50;5117300;28;19923;-65
2024/02/09 09:50:59;;;;;;;;;;;;;;;10.42;85.50;97794.03;5117138;28;20340;-63
2024/02/09 09:53:30;;;;;;;;;;;;;;;10.44;85.42;97793.13;5116782;28;19926;-63
2024/02/09 09:55:59;;;;;;;;;;;;;;;10.43;85.54;97796.56;5116825;28;19968;-64
2024/02/09 09:58:28;;;;;;;;;;;;;;;10.47;85.33;97787.94;5117544;27;19981;-66
2024/02/09 10:00:57;;;;;;;;;;;;;;;10.55;84.67;97801.28;5117251;28;20357;-65
2024/02/09 10:03:28;;;;;;;;;;;;;;;10.61;84.29;97803.63;5116978;28;19920;-65
2024/02/09 10:05:56;;;;;;;;;;;;;;;10.63;84.57;97791.66;5116690;28;20361;-65
2024/02/09 10:08:28;;;;;;;;;;;;;;;10.76;83.51;97784.47;5117261;28;19920;-64
2024/02/09 10:10:57;;;;;;;;;;;;;;;10.91;81.36;97798.44;5116827;27;20284;-65
2024/02/09 10:13:25;;;;;;;;;;;;;;;11.02;80.68;97781.06;5116840;28;19927;-64
2024/02/09 10:15:54;;;;;;;;;;;;;;;11.09;80.20;97782.53;5116762;28;19923;-65
2024/02/09 10:18:23;;;;;;;;;;;;;;;11.16;79.73;97774.59;5116801;28;20303;-64
2024/02/09 10:20:54;;;;;;;;;;;;;;;11.25;78.77;97786.25;5116734;28;19919;-64
2024/02/09 10:23:23;;;;;;;;;;;;;;;11.28;78.13;97783.56;5116281;28;19927;-64
2024/02/09 10:25:51;;;;;;;;;;;;;;;11.33;77.19;97759.56;5116899;28;19919;-63
2024/02/09 10:28:19;;;;;;;;;;;;;;;11.35;76.82;97760.31;5115278;28;20018;-64
2024/02/09 10:30:52;;;;;;;;;;;;;;;11.38;76.64;97744.06;5116053;28;19920;-64
2024/02/09 10:33:20;;;;;;;;;;;;;;;11.48;76.97;97759.91;5116218;28;19919;-65
2024/02/09 10:35:49;;;;;;;;;;;;;;;11.53;77.36;97756.31;5116343;28;19992;-65
2024/02/09 10:38:19;;;;;;;;;;;;;;;11.59;78.37;97763.75;5115882;28;19926;-66
2024/02/09 10:40:48;;;;;;;;;;;;;;;11.69;77.98;97748.94;5115982;28;20262;-66
2024/02/09 10:43:18;;;;;;;;;;;;;;;11.76;78.25;97751.22;5116319;28;19963;-66
2024/02/09 10:45:48;;;;;;;;;;;;;;;11.84;76.69;97739.00;5106574;28;20347;-67
2024/02/09 10:48:21;;;;;;;;;;;;;;;11.93;76.34;97728.44;5105389;28;19972;-64
2024/02/09 10:50:54;;;;;;;;;;;;;;;12.03;76.22;97729.75;5098245;28;19920;-67
2024/02/09 10:53:29;;;;;;;;;;;;;;;12.17;76.57;97736.06;5095697;28;19919;-65
2024/02/09 10:56:03;;;;;;;;;;;;;;;12.21;76.43;97729.97;5095712;28;19963;-67
2024/02/09 10:58:33;;;;;;;;;;;;;;;12.26;76.26;97735.72;5077448;28;19920;-66
2024/02/09 11:01:04;;;;;;;;;;;;;;;12.29;75.79;97731.31;5094968;28;19920;-66
2024/02/09 11:03:33;;;;;;;;;;;;;;;12.34;75.98;97723.47;5094947;28;20326;-64
2024/02/09 11:06:04;;;;;;;;;;;;;;;12.37;75.99;97725.91;5095337;28;20300;-65
2024/02/09 11:08:35;;;;;;;;;;;;;;;12.42;75.85;97721.44;5095408;28;19920;-65
2024/02/09 11:11:04;;;;;;;;;;;;;;;12.46;75.70;97722.97;5093719;28;19919;-65
2024/02/09 11:13:33;;;;;;;;;;;;;;;12.48;74.18;97705.84;5094866;28;20369;-66
2024/02/09 11:16:02;;;;;;;;;;;;;;;12.57;74.61;97706.28;5094866;28;20364;-66
2024/02/09 11:18:32;;;;;;;;;;;;;;;12.65;73.60;97699.16;5095268;28;19920;-65
2024/02/09 11:21:01;;;;;;;;;;;;;;;12.77;73.35;97693.53;5095055;28;19920;-65
2024/02/09 11:23:31;;;;;;;;;;;;;;;12.80;73.04;97695.13;5093651;28;19924;-66
2024/02/09 11:26:04;;;;;;;;;;;;;;;12.83;72.97;97702.69;5094802;28;19930;-64
2024/02/09 11:28:34;;;;;;;;;;;;;;;12.73;72.00;97694.56;5093525;28;20333;-65
2024/02/09 11:31:02;;;;;;;;;;;;;;;12.76;72.97;97691.84;5094639;28;19954;-65
2024/02/09 11:33:31;;;;;;;;;;;;;;;12.66;72.38;97689.75;5095063;28;19966;-64
2024/02/09 11:35:59;;;;;;;;;;;;;;;12.61;72.71;97691.66;5093605;28;19928;-64
2024/02/09 11:38:28;;;;;;;;;;;;;;;12.62;72.94;97698.47;5094742;28;19989;-66
2024/02/09 11:40:57;;;;;;;;;;;;;;;12.55;73.03;97692.75;5094120;28;19964;-66
2024/02/09 11:43:27;;;;;;;;;;;;;;;12.50;73.30;97686.97;5094569;28;19965;-65
2024/02/09 11:45:56;;;;;;;;;;;;;;;12.50;73.13;97683.59;5094696;28;20285;-66
2024/02/09 11:48:24;;;;;;;;;;;;;;;12.45;73.04;97680.41;5094720;28;19920;-64
2024/02/09 11:50:53;;;;;;;;;;;;;;;12.44;73.81;97683.84;5094494;28;19926;-64
2024/02/09 11:53:21;;;;;;;;;;;;;;;12.38;74.13;97679.78;5094307;28;20003;-64
2024/02/09 11:55:52;;;;;;;;;;;;;;;12.41;74.31;97679.66;5094276;28;20012;-64
2024/02/09 11:58:21;;;;;;;;;;;;;;;12.42;73.80;97688.19;5094509;28;20369;-66
2024/02/09 12:00:53;;;;;;;;;;;;;;;12.43;74.05;97682.19;5094614;28;19927;-65
2024/02/09 12:03:21;;;;;;;;;;;;;;;12.44;74.05;97681.28;5094454;28;19920;-64
2024/02/09 12:05:50;;;;;;;;;;;;;;;12.44;74.01;97678.72;5094450;28;19924;-66
2024/02/09 12:08:19;;;;;;;;;;;;;;;12.43;73.60;97682.19;5094392;28;20282;-65
2024/02/09 12:10:50;;;;;;;;;;;;;;;12.46;74.46;97674.38;5092842;28;19923;-66
2024/02/09 12:13:20;;;;;;;;;;;;;;;12.47;73.94;97683.72;5092293;28;19923;-66
2024/02/09 12:15:48;;;;;;;;;;;;;;;12.51;74.05;97677.56;5092890;28;19927;-65
2024/02/09 12:18:19;;;;;;;;;;;;;;;12.56;74.13;97685.91;5094296;28;19943;-67
2024/02/09 12:20:47;;;;;;;;;;;;;;;12.54;74.38;97680.84;5092953;28;19973;-67
2024/02/09 12:23:16;;;;;;;;;;;;;;;12.54;74.19;97680.00;5101945;28;19920;-66
2024/02/09 12:25:45;;;;;;;;;;;;;;;12.52;74.32;97671.56;5093927;28;20369;-66
2024/02/09 12:28:19;;;;;;;;;;;;;;;12.55;74.60;97673.97;5110870;28;19927;-68
2024/02/09 12:30:48;;;;;;;;;;;;;;;12.62;74.30;97675.44;5113034;28;20333;-68
2024/02/09 12:33:20;;;;;;;;;;;;;;;12.63;74.57;97677.91;5114170;28;19920;-65
2024/02/09 12:35:56;;;;;;;;;;;;;;;12.63;73.66;97680.47;5114198;28;19920;-64
2024/02/09 12:38:24;;;;;;;;;;;;;;;12.59;74.02;97672.97;5114638;28;19919;-64
2024/02/09 12:40:55;;;;;;;;;;;;;;;12.57;73.98;97674.78;5114477;28;19973;-64
2024/02/09 12:43:24;;;;;;;;;;;;;;;12.56;74.11;97668.00;5114053;28;19919;-67
2024/02/09 12:45:53;;;;;;;;;;;;;;;12.57;74.28;97664.53;5112811;28;20365;-66
2024/02/09 12:48:24;;;;;;;;;;;;;;;12.58;74.29;97655.97;5114311;28;20366;-66
2024/02/09 12:50:54;;;;;;;;;;;;;;;12.63;74.58;97664.28;5114364;28;19919;-66
2024/02/09 12:53:24;;;;;;;;;;;;;;;12.65;74.59;97662.47;5117836;28;19984;-68
2024/02/09 12:55:55;;;;;;;;;;;;;;;12.71;74.40;97659.69;5118210;28;19926;-66
2024/02/09 12:58:24;;;;;;;;;;;;;;;12.73;74.43;97651.06;5117192;28;19949;-67
2024/02/09 13:00:53;;;;;;;;;;;;;;;12.77;74.55;97656.84;5117828;28;19920;-66
2024/02/09 13:03:24;;;;;;;;;;;;;;;12.80;74.78;97649.06;5117025;28;20465;-67
2024/02/09 13:05:53;;;;;;;;;;;;;;;12.76;74.61;97652.66;5118119;28;20381;-67
2024/02/09 13:08:22;;;;;;;;;;;;;;;12.74;74.50;97659.56;5118103;27;20030;-65
2024/02/09 13:10:50;;;;;;;;;;;;;;;12.76;75.12;97655.22;5118114;28;19919;-67
2024/02/09 13:13:19;;;;;;;;;;;;;;;12.75;74.73;97658.66;5116373;28;20030;-66
2024/02/09 13:15:47;;;;;;;;;;;;;;;12.73;74.98;97660.44;5116798;28;20254;-66
2024/02/09 13:18:16;;;;;;;;;;;;;;;12.72;75.10;97649.38;5117467;28;19927;-65
2024/02/09 13:20:46;;;;;;;;;;;;;;;12.70;75.11;97640.09;5117840;28;19923;-66
2024/02/09 13:23:15;;;;;;;;;;;;;;;12.69;75.26;97646.13;5117226;28;20285;-66
2024/02/09 13:25:43;;;;;;;;;;;;;;;12.73;75.22;97639.97;5118155;28;19924;-66
2024/02/09 13:28:13;;;;;;;;;;;;;;;12.74;75.71;97642.47;5117617;28;19923;-68
2024/02/09 13:30:41;;;;;;;;;;;;;;;12.74;75.73;97641.66;5117821;28;19996;-66
2024/02/09 13:33:10;;;;;;;;;;;;;;;12.75;75.35;97653.53;5117157;28;19927;-66
2024/02/09 13:35:40;;;;;;;;;;;;;;;12.72;75.45;97643.41;5117162;27;19926;-67
2024/02/09 13:38:10;;;;;;;;;;;;;;;12.71;75.39;97641.78;5117589;28;20280;-67
2024/02/09 13:40:39;;;;;;;;;;;;;;;12.72;75.71;97638.28;5117524;28;19919;-66
2024/02/09 13:43:09;;;;;;;;;;;;;;;12.71;75.65;97646.88;5115867;28;19920;-66
2024/02/09 13:45:39;;;;;;;;;;;;;;;12.73;75.78;97645.09;5117711;28;20019;-66
2024/02/09 13:48:08;;;;;;;;;;;;;;;12.71;76.03;97637.50;5117329;28;19988;-67
2024/02/09 13:50:39;;;;;;;;;;;;;;;12.74;75.94;97644.22;5117407;28;19920;-66
2024/02/09 13:53:09;;;;;;;;;;;;;;;12.76;76.10;97634.72;5117027;28;19923;-67
2024/02/09 13:55:38;;;;;;;;;;;;;;;12.78;75.21;97641.44;5117192;28;19927;-65
2024/02/09 13:58:07;;;;;;;;;;;;;;;12.78;75.47;97633.78;5116856;28;20015;-67
2024/02/09 14:00:37;;;;;;;;;;;;;;;12.79;75.45;97632.84;5117163;28;19923;-67
2024/02/09 14:03:05;;;;;;;;;;;;;;;12.82;75.37;97631.91;5115021;28;19920;-66
2024/02/09 14:05:34;;;;;;;;;;;;;;;12.82;75.71;97631.91;5116913;28;19944;-66
2024/02/09 14:08:03;;;;;;;;;;;;;;;12.81;75.64;97630.25;5116637;28;19928;-67
2024/02/09 14:10:35;;;;;;;;;;;;;;;12.79;76.10;97635.41;5116896;28;19920;-67
2024/02/09 14:13:03;;;;;;;;;;;;;;;12.80;76.08;97636.25;5116642;28;20296;-68
2024/02/09 14:15:33;;;;;;;;;;;;;;;12.82;76.53;97633.63;5116761;28;19920;-68
2024/02/09 14:18:03;;;;;;;;;;;;;;;12.78;76.53;97636.34;5116959;28;19927;-66
2024/02/09 14:20:32;;;;;;;;;;;;;;;12.78;76.18;97632.94;5116324;28;20350;-67
2024/02/09 14:23:00;;;;;;;;;;;;;;;12.76;76.30;97634.72;5116382;28;19941;-67
2024/02/09 14:25:33;;;;;;;;;;;;;;;12.77;76.14;97636.38;5116700;28;19919;-66
2024/02/09 14:28:03;;;;;;;;;;;;;;;12.77;76.54;97639.78;5117246;28;20348;-66
2024/02/09 14:30:31;;;;;;;;;;;;;;;12.75;76.31;97638.19;5098335;28;19920;-67
2024/02/09 14:33:00;;;;;;;;;;;;;;;12.71;76.89;97649.44;5116189;28;20385;-67
2024/02/09 14:35:29;;;;;;;;;;;;;;;12.70;76.55;97645.22;5116153;28;20297;-70
2024/02/09 14:37:57;;;;;;;;;;;;;;;12.70;76.15;97650.34;5116349;28;20393;-67
2024/02/09 14:40:26;;;;;;;;;;;;;;;12.67;76.34;97645.34;5116001;28;19919;-66
2024/02/09 14:42:56;;;;;;;;;;;;;;;12.67;76.25;97645.34;5116252;28;19924;-67
2024/02/09 14:45:24;;;;;;;;;;;;;;;12.66;76.34;97653.94;5116468;28;20362;-68
2024/02/09 14:47:52;;;;;;;;;;;;;;;12.63;76.34;97643.81;5097913;28;19927;-67
2024/02/09 14:50:21;;;;;;;;;;;;;;;12.62;76.32;97652.41;5115782;28;20362;-67
2024/02/09 14:52:49;;;;;;;;;;;;;;;12.58;76.51;97648.28;5115982;28;19926;-67
2024/02/09 14:55:18;;;;;;;;;;;;;;;12.56;76.75;97645.78;5114577;28;20444;-67